Time;durP1;ratioP1;P1;durP2;ratioP2;P2;SDS_P1;SDS_P2;PMS_P1;PMS_P2;Temp;Humidity;BMP_temperature;BMP_pressure;BME280_temperature;BME280_humidity;BME280_pressure;Samples;Min_cycle;Max_cycle;Signal;HPM_P1;HPM_P2
2023/10/19 03:00:39;;;;;;;3.85;3.45;;;25.00;34.70;;;;;;5754984;23;45844;-83
2023/10/19 03:03:06;;;;;;;4.75;3.22;;;25.00;34.70;;;;;;4849276;29;45517;-81
2023/10/19 03:05:34;;;;;;;3.45;3.15;;;25.00;34.70;;;;;;4888326;28;45574;-81
2023/10/19 03:08:05;;;;;;;3.78;3.33;;;25.00;34.70;;;;;;4862334;28;47106;-82
2023/10/19 03:10:41;;;;;;;3.50;3.20;;;25.00;34.70;;;;;;4843032;29;45520;-80
2023/10/19 03:13:09;;;;;;;4.13;3.30;;;25.00;34.80;;;;;;4859927;29;45703;-81
2023/10/19 03:15:35;;;;;;;3.40;3.10;;;25.00;34.80;;;;;;4820244;29;45625;-81
2023/10/19 03:18:04;;;;;;;3.50;3.13;;;25.00;34.80;;;;;;4847316;29;46439;-80
2023/10/19 03:20:33;;;;;;;4.10;3.43;;;25.00;34.80;;;;;;4856418;29;46458;-82
2023/10/19 03:23:01;;;;;;;3.70;3.30;;;25.00;34.80;;;;;;4848613;29;45172;-81
2023/10/19 03:28:16;;;;;;;5.20;3.70;;;25.00;34.80;;;;;;4869423;29;45183;-81
2023/10/19 03:30:42;;;;;;;3.55;3.25;;;25.00;34.80;;;;;;4838229;29;45499;-81
2023/10/19 03:33:12;;;;;;;4.10;3.70;;;25.00;34.80;;;;;;4846332;29;45360;-81
2023/10/19 03:35:38;;;;;;;4.28;3.20;;;24.90;34.90;;;;;;4858670;29;45056;-81
2023/10/19 03:38:18;;;;;;;3.53;3.08;;;25.00;34.90;;;;;;4833440;29;46604;-80
2023/10/19 03:40:52;;;;;;;4.75;3.75;;;25.00;34.90;;;;;;4859323;29;45621;-81
2023/10/19 03:43:23;;;;;;;4.43;3.63;;;25.00;34.90;;;;;;4838230;29;45486;-80
2023/10/19 03:45:53;;;;;;;3.90;3.50;;;24.90;34.90;;;;;;4851538;29;45526;-81
2023/10/19 03:48:30;;;;;;;3.92;3.38;;;24.90;34.90;;;;;;4868024;29;46349;-81
2023/10/19 03:50:56;;;;;;;4.47;3.90;;;24.90;34.90;;;;;;4838706;29;45436;-80
2023/10/19 03:53:22;;;;;;;4.23;3.57;;;24.90;35.00;;;;;;4851400;29;45356;-81
2023/10/19 03:55:49;;;;;;;3.90;3.38;;;24.90;34.90;;;;;;4834978;29;45204;-81
2023/10/19 03:58:16;;;;;;;4.57;3.27;;;24.90;34.90;;;;;;4826136;29;46105;-81
2023/10/19 04:00:44;;;;;;;3.75;3.40;;;24.90;34.90;;;;;;4856170;29;45581;-81
2023/10/19 04:03:11;;;;;;;3.63;3.27;;;24.90;34.90;;;;;;4866696;29;45465;-81
2023/10/19 04:05:38;;;;;;;3.80;3.40;;;24.90;35.00;;;;;;4864568;29;45177;-82
2023/10/19 04:08:20;;;;;;;4.28;3.40;;;24.90;35.00;;;;;;4866702;29;46038;-81
2023/10/19 04:11:08;;;;;;;3.40;3.10;;;24.90;35.00;;;;;;4858363;29;46083;-80
2023/10/19 04:13:35;;;;;;;3.83;3.38;;;24.90;35.00;;;;;;4870369;29;45651;-81
2023/10/19 04:16:00;;;;;;;4.00;3.25;;;24.90;35.00;;;;;;4842877;29;45199;-81
2023/10/19 04:18:27;;;;;;;4.00;3.30;;;24.90;35.00;;;;;;4833047;29;46590;-81
2023/10/19 04:23:21;;;;;;;4.55;3.35;;;24.90;35.00;;;;;;4881323;29;45514;-80
2023/10/19 04:25:47;;;;;;;3.80;3.30;;;24.90;35.00;;;;;;4846946;29;46150;-80
2023/10/19 04:28:21;;;;;;;3.90;3.30;;;24.90;35.00;;;;;;4864261;29;45688;-80
2023/10/19 04:30:48;;;;;;;4.22;3.60;;;24.80;35.00;;;;;;4825314;29;45696;-80
2023/10/19 04:33:16;;;;;;;3.78;3.38;;;24.90;35.10;;;;;;4835904;29;45521;-81
2023/10/19 04:35:42;;;;;;;4.10;3.47;;;24.80;35.00;;;;;;4814882;29;45764;-80
2023/10/19 04:38:08;;;;;;;4.33;3.83;;;24.80;35.10;;;;;;4828490;29;47109;-81
2023/10/19 04:40:33;;;;;;;3.55;3.25;;;24.80;35.10;;;;;;4839599;29;45658;-80
2023/10/19 04:43:00;;;;;;;4.22;3.53;;;24.80;35.10;;;;;;4835524;29;45519;-80
2023/10/19 04:45:26;;;;;;;4.05;3.45;;;24.80;35.10;;;;;;4811785;29;45436;-80
2023/10/19 04:47:55;;;;;;;3.93;3.53;;;24.80;35.70;;;;;;4815802;29;47550;-80
2023/10/19 04:50:20;;;;;;;4.32;3.38;;;24.80;35.10;;;;;;4828241;29;45007;-81
2023/10/19 04:52:47;;;;;;;4.10;3.70;;;24.80;35.10;;;;;;4850138;29;45241;-80
2023/10/19 04:55:13;;;;;;;4.43;3.55;;;24.80;35.10;;;;;;4827727;29;45087;-81
2023/10/19 04:57:39;;;;;;;4.28;3.53;;;24.80;35.10;;;;;;4838668;29;46994;-80
2023/10/19 05:00:14;;;;;;;3.65;3.35;;;24.80;35.20;;;;;;4832535;29;45434;-81
2023/10/19 05:02:42;;;;;;;3.83;3.27;;;24.80;35.20;;;;;;4819268;29;45556;-80
2023/10/19 05:05:08;;;;;;;4.80;3.75;;;24.80;35.20;;;;;;4857681;29;45599;-80
2023/10/19 05:07:34;;;;;;;4.03;3.42;;;24.80;35.20;;;;;;4846246;29;45546;-79
2023/10/19 05:09:59;;;;;;;3.95;3.55;;;24.80;35.20;;;;;;4821210;29;45784;-80
2023/10/19 05:12:25;;;;;;;3.90;3.50;;;24.80;35.20;;;;;;4814800;29;45651;-80
2023/10/19 05:14:51;;;;;;;3.40;3.10;;;24.80;35.30;;;;;;4834723;29;45916;-81
2023/10/19 05:17:20;;;;;;;3.80;3.22;;;24.80;35.20;;;;;;4827815;29;46099;-81
2023/10/19 05:19:46;;;;;;;4.00;3.60;;;24.80;35.30;;;;;;4836070;29;45572;-80
2023/10/19 05:22:12;;;;;;;3.97;3.55;;;24.80;35.30;;;;;;4825653;29;45560;-81
2023/10/19 05:24:38;;;;;;;3.88;3.50;;;24.80;35.30;;;;;;4827526;29;45209;-80
2023/10/19 05:27:05;;;;;;;3.67;3.33;;;24.80;35.30;;;;;;4859353;29;45511;-81
2023/10/19 05:29:33;;;;;;;3.97;3.60;;;24.80;35.30;;;;;;4862648;29;45561;-79
2023/10/19 05:32:00;;;;;;;4.00;3.42;;;24.80;35.40;;;;;;4823587;29;45333;-79
2023/10/19 05:34:29;;;;;;;4.95;3.35;;;24.80;35.40;;;;;;4859477;29;45997;-80
2023/10/19 05:36:58;;;;;;;4.22;3.72;;;24.80;35.40;;;;;;4842509;29;46739;-79
2023/10/19 05:39:27;;;;;;;3.63;3.28;;;24.80;35.40;;;;;;4847248;29;45610;-79
2023/10/19 05:41:56;;;;;;;3.53;3.22;;;24.70;35.30;;;;;;4852104;29;45389;-79
2023/10/19 05:44:24;;;;;;;4.28;3.40;;;24.70;35.40;;;;;;4847698;29;45633;-80
2023/10/19 05:46:51;;;;;;;3.45;3.15;;;24.70;35.40;;;;;;4807427;29;46572;-81
2023/10/19 05:49:17;;;;;;;3.88;3.45;;;24.80;35.40;;;;;;4815078;29;45595;-80
2023/10/19 05:51:44;;;;;;;4.25;3.67;;;24.70;35.40;;;;;;4850036;29;44938;-80
2023/10/19 05:54:12;;;;;;;4.25;3.42;;;24.70;35.40;;;;;;4865250;29;45237;-80
2023/10/19 05:56:37;;;;;;;4.40;3.50;;;24.70;35.40;;;;;;4878370;29;45582;-80
2023/10/19 05:59:04;;;;;;;4.03;3.20;;;24.70;35.40;;;;;;4842883;29;45345;-80
2023/10/19 06:01:30;;;;;;;4.20;3.67;;;24.70;35.40;;;;;;4863285;29;45170;-80
2023/10/19 06:03:56;;;;;;;4.38;3.85;;;24.70;35.50;;;;;;4848798;29;45587;-81
2023/10/19 06:06:21;;;;;;;3.95;3.45;;;24.70;35.50;;;;;;4855028;29;45914;-80
2023/10/19 06:08:47;;;;;;;3.92;3.20;;;24.70;35.50;;;;;;4859973;29;45353;-80
2023/10/19 06:11:13;;;;;;;4.18;3.58;;;24.70;35.50;;;;;;4855771;28;44867;-81
2023/10/19 06:13:38;;;;;;;4.05;3.63;;;24.70;35.50;;;;;;4863021;29;44875;-80
2023/10/19 06:16:05;;;;;;;4.10;3.70;;;24.70;35.50;;;;;;4874736;29;46199;-80
2023/10/19 06:18:31;;;;;;;3.95;3.35;;;24.70;35.50;;;;;;4843725;29;45429;-80
2023/10/19 06:20:57;;;;;;;4.00;3.20;;;24.70;35.50;;;;;;4872810;29;45367;-79
2023/10/19 06:23:23;;;;;;;3.80;3.33;;;24.70;35.60;;;;;;4894778;28;45594;-80
2023/10/19 06:25:50;;;;;;;3.73;3.33;;;24.70;35.50;;;;;;4846753;29;46023;-81
2023/10/19 06:28:15;;;;;;;4.05;3.65;;;24.70;35.50;;;;;;4850785;29;45321;-81
2023/10/19 06:30:42;;;;;;;3.97;3.55;;;24.70;35.60;;;;;;4827195;29;45389;-80
2023/10/19 06:33:08;;;;;;;4.85;3.60;;;24.70;35.60;;;;;;4853712;29;45317;-80
2023/10/19 06:35:33;;;;;;;3.83;3.42;;;24.70;35.60;;;;;;4865699;29;45424;-81
2023/10/19 06:38:00;;;;;;;3.70;3.30;;;24.70;35.60;;;;;;4849927;29;45471;-81
2023/10/19 06:40:28;;;;;;;3.95;3.55;;;24.70;35.60;;;;;;4848736;29;45323;-81
2023/10/19 06:42:58;;;;;;;4.53;3.50;;;24.60;35.60;;;;;;4866810;29;45416;-80
2023/10/19 06:45:25;;;;;;;3.70;3.40;;;24.60;35.60;;;;;;4876847;29;45941;-80
2023/10/19 06:47:51;;;;;;;5.38;3.80;;;24.70;35.60;;;;;;4875747;29;45390;-80
2023/10/19 06:50:18;;;;;;;4.30;3.67;;;24.60;35.60;;;;;;4832550;29;45598;-80
2023/10/19 06:52:44;;;;;;;4.03;3.30;;;24.60;35.60;;;;;;4849399;29;45564;-80
2023/10/19 06:55:14;;;;;;;3.70;3.40;;;24.60;35.60;;;;;;4860217;29;45427;-80
2023/10/19 06:57:43;;;;;;;3.88;3.40;;;24.60;35.70;;;;;;4850146;29;45610;-80
2023/10/19 07:00:15;;;;;;;3.80;3.30;;;24.60;35.70;;;;;;4843733;29;46192;-80
2023/10/19 07:02:42;;;;;;;3.90;3.50;;;24.60;35.70;;;;;;4842722;29;45233;-79
2023/10/19 07:05:11;;;;;;;4.32;3.25;;;24.60;35.70;;;;;;4834709;29;46261;-80
2023/10/19 07:07:41;;;;;;;3.90;3.50;;;24.60;35.70;;;;;;4850543;29;46453;-80
2023/10/19 07:10:09;;;;;;;4.40;3.50;;;24.60;35.70;;;;;;4849283;29;45503;-80
2023/10/19 07:12:39;;;;;;;4.00;3.35;;;24.60;35.70;;;;;;4835464;29;45502;-81
2023/10/19 07:15:07;;;;;;;3.78;3.42;;;24.60;35.70;;;;;;4861998;29;46220;-80
2023/10/19 07:17:37;;;;;;;4.40;3.60;;;24.60;35.70;;;;;;4849344;29;44839;-81
2023/10/19 07:20:06;;;;;;;3.80;3.40;;;24.60;35.80;;;;;;4854830;29;44895;-80
2023/10/19 07:22:55;;;;;;;4.38;3.30;;;24.60;35.80;;;;;;4850778;29;45564;-80
2023/10/19 07:25:21;;;;;;;3.85;3.20;;;24.60;35.70;;;;;;4867806;29;46983;-80
2023/10/19 07:27:52;;;;;;;3.35;3.03;;;24.60;35.80;;;;;;4878278;29;45675;-80
2023/10/19 07:30:21;;;;;;;3.92;3.50;;;24.60;35.80;;;;;;4860190;29;45258;-80
2023/10/19 07:32:53;;;;;;;4.15;3.47;;;24.60;35.80;;;;;;4867176;29;45171;-80
2023/10/19 07:35:19;;;;;;;3.77;3.30;;;24.60;35.80;;;;;;4851865;29;46411;-80
2023/10/19 07:37:47;;;;;;;4.10;3.25;;;24.50;35.70;;;;;;4823126;29;45670;-80
2023/10/19 07:40:13;;;;;;;3.92;3.53;;;24.60;35.80;;;;;;4882222;28;45450;-80
2023/10/19 07:42:40;;;;;;;4.15;3.63;;;24.60;35.80;;;;;;4849901;29;45356;-80
2023/10/19 07:45:11;;;;;;;3.72;3.25;;;24.50;35.80;;;;;;4850967;29;45453;-80
2023/10/19 07:47:40;;;;;;;3.80;3.40;;;24.50;35.80;;;;;;4837978;29;45088;-80
2023/10/19 07:50:15;;;;;;;3.83;3.42;;;24.50;35.80;;;;;;4836495;29;45424;-80
2023/10/19 07:53:03;;;;;;;3.80;3.38;;;24.50;35.80;;;;;;4833934;29;45299;-80
2023/10/19 07:55:31;;;;;;;3.88;3.45;;;24.50;35.80;;;;;;4864489;29;45626;-80
2023/10/19 07:57:59;;;;;;;4.07;3.38;;;24.50;35.80;;;;;;4827140;29;45403;-80
2023/10/19 08:00:25;;;;;;;3.55;3.25;;;24.60;35.90;;;;;;4819518;29;44995;-80
2023/10/19 08:02:53;;;;;;;3.65;3.30;;;24.50;35.80;;;;;;4863652;29;45595;-80
2023/10/19 08:05:19;;;;;;;4.25;3.05;;;24.50;35.80;;;;;;4845235;29;45508;-80
2023/10/19 08:07:46;;;;;;;3.90;3.20;;;24.50;35.80;;;;;;4839677;29;45370;-80
2023/10/19 08:10:15;;;;;;;3.60;3.30;;;24.50;35.80;;;;;;4848313;29;44789;-80
2023/10/19 08:12:41;;;;;;;3.53;3.20;;;24.50;35.90;;;;;;4835414;29;46769;-80
2023/10/19 08:15:11;;;;;;;3.40;3.08;;;24.50;35.90;;;;;;4833112;29;46039;-80
2023/10/19 08:17:38;;;;;;;3.47;3.17;;;24.50;35.90;;;;;;4845672;29;45932;-80
2023/10/19 08:20:09;;;;;;;3.58;3.20;;;24.50;35.90;;;;;;4856926;29;45894;-80
2023/10/19 08:22:39;;;;;;;3.42;3.08;;;24.50;35.90;;;;;;4848368;29;45520;-80
2023/10/19 08:25:11;;;;;;;3.50;3.20;;;24.50;35.90;;;;;;4837727;29;45521;-80
2023/10/19 08:27:49;;;;;;;3.42;3.13;;;24.50;35.90;;;;;;4840325;29;45522;-80
2023/10/19 08:30:19;;;;;;;3.97;3.53;;;24.50;36.00;;;;;;4830894;29;45241;-80
2023/10/19 08:32:47;;;;;;;3.75;3.42;;;24.50;35.90;;;;;;4869407;29;45212;-80
2023/10/19 08:35:14;;;;;;;3.38;3.08;;;24.50;36.00;;;;;;4846744;29;46218;-80
2023/10/19 08:37:40;;;;;;;3.60;3.08;;;24.40;36.00;;;;;;4834650;29;45160;-80
2023/10/19 08:40:14;;;;;;;3.75;3.40;;;24.40;36.00;;;;;;4837457;29;44732;-80
2023/10/19 08:42:40;;;;;;;3.80;3.08;;;24.50;36.00;;;;;;4847831;29;45359;-80
2023/10/19 08:45:08;;;;;;;3.83;3.40;;;24.50;36.10;;;;;;4850104;29;46007;-80
2023/10/19 08:47:36;;;;;;;3.65;3.25;;;24.40;36.00;;;;;;4828625;29;45450;-80
2023/10/19 08:50:04;;;;;;;4.10;3.08;;;24.50;36.10;;;;;;4855268;29;45218;-80
2023/10/19 08:52:32;;;;;;;3.37;3.07;;;24.40;36.20;;;;;;4835054;29;45420;-80
2023/10/19 08:54:58;;;;;;;3.75;3.10;;;24.40;36.10;;;;;;4840631;29;46299;-80
2023/10/19 08:57:24;;;;;;;3.08;2.85;;;24.40;36.00;;;;;;4861948;29;45505;-81
2023/10/19 08:59:49;;;;;;;3.47;3.17;;;24.40;36.10;;;;;;4870760;29;46238;-80
2023/10/19 09:02:16;;;;;;;4.17;3.10;;;24.40;36.10;;;;;;4840893;29;45614;-80
2023/10/19 09:04:47;;;;;;;3.70;3.30;;;24.40;36.10;;;;;;4869407;29;45476;-80
2023/10/19 09:07:14;;;;;;;4.03;2.95;;;24.40;36.10;;;;;;4861919;29;45202;-80
2023/10/19 09:09:40;;;;;;;3.35;3.05;;;24.40;36.10;;;;;;4867188;29;45293;-81
2023/10/19 09:12:09;;;;;;;3.40;3.10;;;24.40;36.10;;;;;;4877743;29;45290;-80
2023/10/19 09:14:36;;;;;;;3.63;3.10;;;24.40;36.10;;;;;;4839272;29;46245;-81
2023/10/19 09:17:03;;;;;;;3.70;3.20;;;24.40;36.20;;;;;;4842092;29;45673;-80
2023/10/19 09:19:37;;;;;;;3.50;3.20;;;24.40;36.80;;;;;;4866837;29;44952;-81
2023/10/19 09:22:36;;;;;;;3.80;3.40;;;24.40;36.20;;;;;;4892134;28;46109;-80
2023/10/19 09:24:55;;;;;;;3.88;3.20;;;24.40;36.20;;;;;;4886785;29;46092;-80
2023/10/19 09:27:21;;;;;;;4.03;3.50;;;24.40;36.20;;;;;;4871428;29;45796;-81
2023/10/19 09:29:48;;;;;;;3.45;3.10;;;24.40;36.20;;;;;;4859663;29;45314;-80
2023/10/19 09:32:14;;;;;;;3.88;3.30;;;24.40;36.20;;;;;;4862152;29;45556;-80
2023/10/19 09:34:43;;;;;;;3.50;3.10;;;24.40;36.30;;;;;;4858733;29;46305;-80
2023/10/19 09:37:09;;;;;;;3.50;3.20;;;24.40;36.20;;;;;;4884533;29;45508;-81
2023/10/19 09:39:35;;;;;;;4.10;3.35;;;24.40;36.20;;;;;;4851073;29;45245;-80
2023/10/19 09:42:10;;;;;;;3.40;3.03;;;24.40;36.20;;;;;;4847246;29;45692;-80
2023/10/19 09:44:41;;;;;;;3.50;3.20;;;24.40;36.30;;;;;;4875115;29;45301;-80
2023/10/19 09:47:12;;;;;;;4.00;3.23;;;24.40;36.30;;;;;;4817385;29;45274;-80
2023/10/19 09:49:37;;;;;;;3.38;3.05;;;24.40;36.30;;;;;;4841012;29;45241;-80
2023/10/19 09:52:04;;;;;;;4.10;3.50;;;24.30;36.30;;;;;;4874216;29;47281;-80
2023/10/19 09:55:00;;;;;;;3.50;3.20;;;24.40;36.30;;;;;;4852059;29;46303;-81
2023/10/19 09:57:31;;;;;;;3.58;3.00;;;24.40;36.30;;;;;;4869487;29;45204;-80
2023/10/19 09:59:59;;;;;;;3.53;3.00;;;24.40;36.40;;;;;;4854120;29;45339;-80
2023/10/19 10:02:25;;;;;;;3.70;3.13;;;24.40;36.30;;;;;;4827641;29;44957;-81
2023/10/19 10:04:52;;;;;;;3.58;2.90;;;24.40;36.40;;;;;;4840488;29;47119;-80
2023/10/19 10:07:18;;;;;;;4.80;3.20;;;24.30;36.30;;;;;;4881047;29;45408;-81
2023/10/19 10:09:44;;;;;;;3.33;3.03;;;24.40;36.40;;;;;;4872184;29;45219;-81
2023/10/19 10:12:17;;;;;;;3.47;3.17;;;24.30;36.30;;;;;;4823001;29;46361;-80
2023/10/19 10:14:54;;;;;;;3.42;3.13;;;24.30;36.30;;;;;;4881956;29;47125;-80
2023/10/19 10:17:22;;;;;;;3.42;3.10;;;24.40;36.40;;;;;;4840682;29;46026;-80
2023/10/19 10:19:48;;;;;;;3.55;3.17;;;24.30;36.40;;;;;;4863816;29;46973;-81
2023/10/19 10:22:14;;;;;;;3.30;3.00;;;24.30;36.40;;;;;;4841332;29;45707;-80
2023/10/19 10:24:43;;;;;;;3.25;2.95;;;24.40;36.40;;;;;;4836042;29;46519;-80
2023/10/19 10:27:10;;;;;;;3.38;3.08;;;24.30;36.40;;;;;;4867541;29;45484;-80
2023/10/19 10:29:36;;;;;;;3.55;3.22;;;24.30;36.40;;;;;;4861054;29;45330;-80
2023/10/19 10:32:05;;;;;;;3.40;3.10;;;24.30;36.40;;;;;;4843910;29;46209;-80
2023/10/19 10:34:36;;;;;;;3.60;3.00;;;24.30;36.50;;;;;;4870983;29;46056;-80
2023/10/19 10:37:07;;;;;;;3.50;3.20;;;24.30;36.40;;;;;;4877950;29;45482;-80
2023/10/19 10:39:35;;;;;;;3.20;2.90;;;24.30;36.40;;;;;;4880963;29;44789;-80
2023/10/19 10:42:04;;;;;;;3.45;2.92;;;24.30;36.40;;;;;;4844809;29;45628;-81
2023/10/19 10:44:40;;;;;;;3.30;3.00;;;24.30;36.40;;;;;;4835961;29;46499;-80
2023/10/19 10:47:10;;;;;;;3.58;2.80;;;24.30;36.40;;;;;;4838884;29;45062;-80
2023/10/19 10:49:56;;;;;;;3.35;3.05;;;24.30;36.40;;;;;;4840789;29;45657;-80
2023/10/19 10:52:25;;;;;;;3.47;2.90;;;24.30;36.40;;;;;;4874141;29;45549;-80
2023/10/19 10:54:52;;;;;;;3.25;2.95;;;24.30;36.50;;;;;;4862824;29;46250;-80
2023/10/19 10:57:19;;;;;;;3.60;2.92;;;24.30;36.50;;;;;;4834388;29;45281;-81
2023/10/19 10:59:45;;;;;;;3.50;3.20;;;24.30;36.70;;;;;;4881202;29;45204;-80
2023/10/19 11:02:19;;;;;;;3.20;2.90;;;24.30;36.50;;;;;;4863101;29;45918;-80
2023/10/19 11:04:46;;;;;;;3.23;2.90;;;24.30;36.50;;;;;;4881286;29;45995;-80
2023/10/19 11:07:18;;;;;;;3.53;3.20;;;24.30;37.10;;;;;;4875778;29;45410;-80
2023/10/19 11:09:45;;;;;;;3.13;2.83;;;24.30;36.50;;;;;;4842143;29;46098;-80
2023/10/19 11:12:13;;;;;;;3.08;2.78;;;24.30;36.50;;;;;;4868782;29;45310;-80
2023/10/19 11:14:54;;;;;;;3.28;2.97;;;24.30;36.60;;;;;;4864952;29;46106;-80
2023/10/19 11:17:23;;;;;;;3.13;2.83;;;24.30;36.60;;;;;;4871849;29;44653;-81
2023/10/19 11:19:49;;;;;;;3.27;2.97;;;24.30;36.50;;;;;;4852684;29;45273;-80
2023/10/19 11:22:15;;;;;;;3.00;2.60;;;24.30;36.60;;;;;;4857935;29;46029;-81
2023/10/19 11:24:41;;;;;;;3.60;2.90;;;24.40;36.60;;;;;;4864165;29;46240;-81
2023/10/19 11:27:11;;;;;;;3.50;2.70;;;24.30;36.60;;;;;;4876787;29;45212;-80
2023/10/19 11:29:38;;;;;;;3.95;3.40;;;24.30;36.60;;;;;;4848862;29;45098;-81
2023/10/19 11:32:04;;;;;;;2.88;2.63;;;24.30;36.60;;;;;;4866897;29;45776;-80
2023/10/19 11:34:30;;;;;;;3.30;2.80;;;24.30;36.60;;;;;;4859922;29;46241;-81
2023/10/19 11:37:03;;;;;;;3.72;2.90;;;24.30;36.70;;;;;;4831028;29;45133;-81
2023/10/19 11:39:29;;;;;;;3.65;2.85;;;24.30;36.70;;;;;;4853130;29;46273;-81
2023/10/19 11:41:55;;;;;;;2.90;2.70;;;24.30;36.70;;;;;;4849910;29;46659;-80
2023/10/19 11:44:22;;;;;;;3.15;2.85;;;24.30;36.70;;;;;;4871089;29;46425;-81
2023/10/19 11:46:48;;;;;;;3.50;2.80;;;24.30;36.70;;;;;;4845941;29;45643;-81
2023/10/19 11:49:14;;;;;;;3.28;2.97;;;24.30;36.70;;;;;;4839399;29;45462;-80
2023/10/19 11:51:40;;;;;;;3.27;2.50;;;24.30;36.70;;;;;;4845124;29;46249;-80
2023/10/19 11:54:06;;;;;;;3.53;2.95;;;24.30;36.70;;;;;;4852745;29;46046;-82
2023/10/19 11:56:32;;;;;;;2.92;2.65;;;24.30;36.70;;;;;;4851365;29;45610;-81
2023/10/19 11:58:58;;;;;;;2.63;2.43;;;24.30;36.80;;;;;;4874631;29;45239;-80
2023/10/19 12:01:25;;;;;;;3.17;2.88;;;24.30;36.80;;;;;;4862795;28;45812;-81
2023/10/19 12:03:51;;;;;;;3.22;2.92;;;24.30;36.80;;;;;;4841010;29;47831;-81
2023/10/19 12:06:23;;;;;;;3.28;2.75;;;24.30;36.80;;;;;;4837061;29;45224;-80
2023/10/19 12:08:49;;;;;;;2.92;2.65;;;24.30;36.80;;;;;;4857491;29;46320;-80
2023/10/19 12:11:18;;;;;;;3.33;2.80;;;24.30;36.90;;;;;;4806556;29;45627;-80
2023/10/19 12:13:45;;;;;;;3.13;2.83;;;24.30;36.90;;;;;;4838089;29;47213;-81
2023/10/19 12:16:17;;;;;;;3.10;2.80;;;24.30;36.90;;;;;;4830401;29;45584;-82
2023/10/19 12:18:48;;;;;;;2.78;2.45;;;24.30;36.90;;;;;;4840599;29;45328;-80
2023/10/19 12:21:14;;;;;;;3.10;2.83;;;24.30;36.90;;;;;;4853417;29;45610;-81
2023/10/19 12:23:40;;;;;;;3.95;3.20;;;24.30;36.90;;;;;;4824278;29;46929;-81
2023/10/19 12:26:11;;;;;;;3.70;3.05;;;24.30;36.90;;;;;;4852610;29;45401;-80
2023/10/19 12:28:46;;;;;;;3.15;2.80;;;24.30;36.90;;;;;;4855648;29;45238;-81
2023/10/19 12:31:12;;;;;;;3.30;3.00;;;24.30;37.00;;;;;;4837194;29;45234;-81
2023/10/19 12:33:38;;;;;;;3.17;2.60;;;24.30;37.00;;;;;;4819286;29;46586;-82
2023/10/19 12:38:51;;;;;;;2.80;2.50;;;24.30;37.00;;;;;;4871848;29;45669;-81
2023/10/19 12:41:19;;;;;;;3.63;2.88;;;24.20;37.00;;;;;;4837164;29;45106;-81
2023/10/19 12:43:46;;;;;;;3.05;2.78;;;24.30;37.00;;;;;;4840370;29;46872;-81
2023/10/19 12:46:13;;;;;;;3.20;2.90;;;24.30;37.00;;;;;;4848760;29;45416;-81
2023/10/19 12:48:42;;;;;;;3.17;2.80;;;24.30;37.10;;;;;;4857260;29;44866;-81
2023/10/19 12:51:11;;;;;;;3.10;2.70;;;24.30;37.10;;;;;;4849251;29;45377;-81
2023/10/19 12:53:38;;;;;;;4.05;3.40;;;24.30;37.10;;;;;;4838143;29;46352;-81
2023/10/19 12:56:10;;;;;;;3.37;2.87;;;24.30;37.10;;;;;;4821529;29;45614;-82
2023/10/19 12:58:36;;;;;;;4.03;2.88;;;24.30;37.70;;;;;;4856305;29;45341;-81
2023/10/19 13:01:05;;;;;;;2.92;2.63;;;24.30;37.10;;;;;;4791014;29;1632367;-82
2023/10/19 13:03:32;;;;;;;3.17;2.88;;;24.30;37.10;;;;;;4856280;29;45809;-82
2023/10/19 13:05:58;;;;;;;3.15;2.60;;;24.30;37.20;;;;;;4837049;29;45343;-82
2023/10/19 13:08:27;;;;;;;4.00;2.95;;;24.30;37.20;;;;;;4842518;29;45497;-80
2023/10/19 13:10:52;;;;;;;3.30;2.85;;;24.30;37.20;;;;;;4847978;29;45759;-82
2023/10/19 13:13:18;;;;;;;3.47;3.17;;;24.30;37.20;;;;;;4856208;29;45920;-81
2023/10/19 13:15:48;;;;;;;3.33;2.92;;;24.30;37.20;;;;;;4849355;29;44947;-81
2023/10/19 13:18:19;;;;;;;2.90;2.50;;;24.30;37.20;;;;;;4838461;29;45362;-81
2023/10/19 13:20:46;;;;;;;3.15;2.80;;;24.30;37.20;;;;;;4837078;29;45825;-81
2023/10/19 13:23:16;;;;;;;3.10;2.80;;;24.30;37.20;;;;;;4823999;29;46039;-81
2023/10/19 13:26:01;;;;;;;3.47;2.87;;;24.30;37.20;;;;;;4841656;29;45598;-82
2023/10/19 13:28:27;;;;;;;3.25;2.90;;;24.30;37.20;;;;;;4873484;29;45831;-81
2023/10/19 13:30:53;;;;;;;3.10;2.80;;;24.30;37.70;;;;;;4830337;29;45935;-80
2023/10/19 13:33:21;;;;;;;3.40;3.00;;;24.30;37.30;;;;;;4841230;29;45559;-79
2023/10/19 13:35:47;;;;;;;3.60;3.08;;;24.30;37.30;;;;;;4821543;29;45760;-80
2023/10/19 13:38:13;;;;;;;3.40;3.10;;;24.30;37.30;;;;;;4830587;29;45437;-80
2023/10/19 13:40:39;;;;;;;3.35;2.80;;;24.30;37.30;;;;;;4835225;29;45902;-80
2023/10/19 13:43:08;;;;;;;2.90;2.60;;;24.30;37.40;;;;;;4858319;29;46400;-80
2023/10/19 13:45:35;;;;;;;3.95;2.97;;;24.30;37.30;;;;;;4832292;29;45374;-80
2023/10/19 13:48:05;;;;;;;3.22;2.92;;;24.30;37.40;;;;;;4809636;29;45686;-80
2023/10/19 13:50:31;;;;;;;3.03;2.75;;;24.30;37.40;;;;;;4847765;29;45450;-80
2023/10/19 13:52:57;;;;;;;4.43;3.10;;;24.30;37.40;;;;;;4824886;29;46536;-80
2023/10/19 13:55:23;;;;;;;3.50;2.72;;;24.30;37.40;;;;;;4818316;29;45362;-80
2023/10/19 13:57:48;;;;;;;3.42;2.97;;;24.30;37.40;;;;;;4827907;29;45461;-80
2023/10/19 14:00:25;;;;;;;3.47;2.73;;;24.20;37.40;;;;;;4849120;29;45772;-81
2023/10/19 14:02:53;;;;;;;3.40;2.80;;;24.30;37.50;;;;;;4854854;29;45391;-80
2023/10/19 14:05:19;;;;;;;4.28;2.90;;;24.30;37.40;;;;;;4852222;29;45661;-80
2023/10/19 14:07:46;;;;;;;3.28;2.83;;;24.30;37.50;;;;;;4856334;29;45785;-80
2023/10/19 14:10:12;;;;;;;3.72;2.83;;;24.30;37.50;;;;;;4868745;29;44932;-80
2023/10/19 14:13:00;;;;;;;3.10;2.80;;;24.30;37.50;;;;;;4852570;29;45723;-80
2023/10/19 14:15:27;;;;;;;3.10;2.80;;;24.30;37.50;;;;;;4849556;29;45937;-80
2023/10/19 14:17:56;;;;;;;3.33;2.88;;;24.20;37.50;;;;;;4839324;29;45751;-79
2023/10/19 14:20:23;;;;;;;3.10;2.80;;;24.30;37.50;;;;;;4852012;29;46190;-79
2023/10/19 14:22:49;;;;;;;3.03;2.72;;;24.30;37.60;;;;;;4855450;29;45505;-80
2023/10/19 14:25:15;;;;;;;2.92;2.63;;;24.30;37.60;;;;;;4868301;29;45747;-81
2023/10/19 14:27:42;;;;;;;3.20;2.80;;;24.20;37.50;;;;;;4853942;29;46493;-81
2023/10/19 14:30:12;;;;;;;3.10;2.80;;;24.20;37.50;;;;;;4869324;29;45319;-80
2023/10/19 14:32:48;;;;;;;3.20;2.90;;;24.30;37.60;;;;;;4818260;29;48200;-79
2023/10/19 14:35:18;;;;;;;3.00;2.70;;;24.20;37.50;;;;;;4865173;29;45633;-80
2023/10/19 14:37:45;;;;;;;2.80;2.50;;;24.30;37.60;;;;;;4855974;29;45675;-80
2023/10/19 14:40:11;;;;;;;3.30;2.90;;;24.30;37.60;;;;;;4870470;29;45841;-81
2023/10/19 14:42:38;;;;;;;3.23;2.93;;;24.20;37.60;;;;;;4854207;29;45349;-80
2023/10/19 14:45:09;;;;;;;3.50;2.87;;;24.30;37.60;;;;;;4822852;29;45776;-80
2023/10/19 14:48:18;;;;;;;3.30;3.00;;;24.20;37.60;;;;;;4849722;29;46270;-80
2023/10/19 14:50:57;;;;;;;3.10;2.80;;;24.20;37.60;;;;;;4867236;29;45490;-81
2023/10/19 14:53:22;;;;;;;2.72;2.50;;;24.20;37.70;;;;;;4827176;29;47011;-81
2023/10/19 14:55:50;;;;;;;2.83;2.60;;;24.20;37.70;;;;;;4834983;29;45789;-79
2023/10/19 14:58:17;;;;;;;3.28;2.63;;;24.20;37.70;;;;;;4835539;29;46370;-79
2023/10/19 15:00:50;;;;;;;3.42;2.55;;;24.20;37.70;;;;;;4843736;29;45380;-80
2023/10/19 15:03:16;;;;;;;2.83;2.45;;;24.20;37.70;;;;;;4838481;29;46272;-79
2023/10/19 15:05:43;;;;;;;3.25;2.70;;;24.20;37.70;;;;;;4809668;29;45571;-80
2023/10/19 15:08:09;;;;;;;3.65;2.60;;;24.20;37.70;;;;;;4824101;29;45284;-80
2023/10/19 15:10:39;;;;;;;3.03;2.73;;;24.20;37.70;;;;;;4819741;29;46529;-80
2023/10/19 15:13:05;;;;;;;2.60;2.30;;;24.20;37.70;;;;;;4810524;29;47439;-79
2023/10/19 15:15:31;;;;;;;2.85;2.50;;;24.20;37.80;;;;;;4842762;29;44999;-78
2023/10/19 15:17:57;;;;;;;3.17;2.70;;;24.20;37.80;;;;;;4817981;29;46567;-79
2023/10/19 15:20:27;;;;;;;2.80;2.60;;;24.20;37.80;;;;;;4828423;29;45767;-79
2023/10/19 15:22:56;;;;;;;3.75;2.65;;;24.20;37.80;;;;;;4836611;29;47304;-79
2023/10/19 15:25:24;;;;;;;3.20;2.50;;;24.20;37.80;;;;;;4849544;29;44969;-80
2023/10/19 15:27:51;;;;;;;2.65;2.45;;;24.20;37.90;;;;;;4857526;29;45647;-79
2023/10/19 15:30:17;;;;;;;2.70;2.50;;;24.10;37.80;;;;;;4832810;29;45360;-79
2023/10/19 15:32:43;;;;;;;2.67;2.38;;;24.20;37.90;;;;;;4833723;29;47122;-79
2023/10/19 15:35:15;;;;;;;3.08;2.65;;;24.20;37.90;;;;;;4811044;29;45334;-79
2023/10/19 15:37:41;;;;;;;2.90;2.60;;;24.20;37.90;;;;;;4850743;29;45900;-79
2023/10/19 15:40:07;;;;;;;2.53;2.33;;;24.20;37.90;;;;;;4842466;29;45219;-80
2023/10/19 15:42:35;;;;;;;2.70;2.30;;;24.20;37.90;;;;;;4851094;29;46178;-80
2023/10/19 15:45:02;;;;;;;3.13;2.70;;;24.10;37.90;;;;;;4858698;29;45347;-79
2023/10/19 15:47:28;;;;;;;3.10;2.42;;;24.20;37.90;;;;;;4836109;29;45810;-79
2023/10/19 15:49:56;;;;;;;2.90;2.60;;;24.20;38.00;;;;;;4838887;29;46278;-79
2023/10/19 15:52:45;;;;;;;3.00;2.50;;;24.20;38.00;;;;;;4849620;29;46290;-80
2023/10/19 15:55:11;;;;;;;3.42;2.50;;;24.20;38.00;;;;;;4846141;29;45910;-79
2023/10/19 15:57:40;;;;;;;2.45;2.25;;;24.20;38.00;;;;;;4853084;29;44966;-80
2023/10/19 16:00:10;;;;;;;2.95;2.30;;;24.10;38.00;;;;;;4825839;29;45770;-80
2023/10/19 16:02:35;;;;;;;3.10;2.53;;;24.20;38.00;;;;;;4861841;29;47521;-79